sensor_id;sensor_type;location;lat;lon;timestamp;P1;durP1;ratioP1;P2;durP2;ratioP2
36799;SDS011;22752;51.960;5.886;2023-07-29T00:01:35;4.85;;;3.45;;
36799;SDS011;22752;51.960;5.886;2023-07-29T00:04:01;3.30;;;2.80;;
36799;SDS011;22752;51.960;5.886;2023-07-29T00:06:27;7.25;;;2.80;;
36799;SDS011;22752;51.960;5.886;2023-07-29T00:08:53;3.42;;;2.50;;
36799;SDS011;22752;51.960;5.886;2023-07-29T00:11:18;4.05;;;2.60;;
36799;SDS011;22752;51.960;5.886;2023-07-29T00:13:44;3.50;;;3.03;;
36799;SDS011;22752;51.960;5.886;2023-07-29T00:16:10;4.07;;;3.67;;
36799;SDS011;22752;51.960;5.886;2023-07-29T00:18:35;6.50;;;4.50;;
36799;SDS011;22752;51.960;5.886;2023-07-29T00:21:01;4.38;;;3.80;;
36799;SDS011;22752;51.960;5.886;2023-07-29T00:23:27;4.32;;;3.92;;
36799;SDS011;22752;51.960;5.886;2023-07-29T00:25:52;4.25;;;3.88;;
36799;SDS011;22752;51.960;5.886;2023-07-29T00:28:18;7.95;;;3.80;;
36799;SDS011;22752;51.960;5.886;2023-07-29T00:30:44;4.30;;;3.45;;
36799;SDS011;22752;51.960;5.886;2023-07-29T00:33:09;5.80;;;4.03;;
36799;SDS011;22752;51.960;5.886;2023-07-29T00:35:35;5.25;;;4.38;;
36799;SDS011;22752;51.960;5.886;2023-07-29T00:38:00;5.65;;;4.10;;
36799;SDS011;22752;51.960;5.886;2023-07-29T00:40:27;4.32;;;3.92;;
36799;SDS011;22752;51.960;5.886;2023-07-29T00:42:54;4.75;;;4.25;;
36799;SDS011;22752;51.960;5.886;2023-07-29T00:45:19;5.65;;;4.40;;
36799;SDS011;22752;51.960;5.886;2023-07-29T00:47:45;81.30;;;6.15;;
36799;SDS011;22752;51.960;5.886;2023-07-29T00:50:12;5.97;;;4.40;;
36799;SDS011;22752;51.960;5.886;2023-07-29T00:52:38;5.40;;;4.68;;
36799;SDS011;22752;51.960;5.886;2023-07-29T00:55:04;5.32;;;4.30;;
36799;SDS011;22752;51.960;5.886;2023-07-29T00:57:31;5.90;;;4.57;;
36799;SDS011;22752;51.960;5.886;2023-07-29T00:59:58;4.90;;;4.40;;
36799;SDS011;22752;51.960;5.886;2023-07-29T01:02:24;6.88;;;5.20;;
36799;SDS011;22752;51.960;5.886;2023-07-29T01:04:52;6.95;;;5.47;;
36799;SDS011;22752;51.960;5.886;2023-07-29T01:07:28;6.80;;;5.25;;
36799;SDS011;22752;51.960;5.886;2023-07-29T01:10:03;7.07;;;5.60;;
36799;SDS011;22752;51.960;5.886;2023-07-29T01:12:54;10.32;;;6.25;;
36799;SDS011;22752;51.960;5.886;2023-07-29T01:18:30;6.30;;;5.50;;
36799;SDS011;22752;51.960;5.886;2023-07-29T01:21:03;7.00;;;5.75;;
36799;SDS011;22752;51.960;5.886;2023-07-29T01:23:35;6.40;;;5.30;;
36799;SDS011;22752;51.960;5.886;2023-07-29T01:26:02;7.82;;;5.55;;
36799;SDS011;22752;51.960;5.886;2023-07-29T01:28:28;7.72;;;5.90;;
36799;SDS011;22752;51.960;5.886;2023-07-29T01:30:58;6.43;;;5.40;;
36799;SDS011;22752;51.960;5.886;2023-07-29T01:33:33;7.22;;;5.07;;
36799;SDS011;22752;51.960;5.886;2023-07-29T01:36:18;6.18;;;4.97;;
36799;SDS011;22752;51.960;5.886;2023-07-29T01:38:48;6.23;;;4.70;;
36799;SDS011;22752;51.960;5.886;2023-07-29T01:41:15;7.53;;;5.13;;
36799;SDS011;22752;51.960;5.886;2023-07-29T01:43:43;6.30;;;5.35;;
36799;SDS011;22752;51.960;5.886;2023-07-29T01:46:10;6.75;;;5.70;;
36799;SDS011;22752;51.960;5.886;2023-07-29T01:48:36;7.22;;;5.07;;
36799;SDS011;22752;51.960;5.886;2023-07-29T01:51:02;7.45;;;5.40;;
36799;SDS011;22752;51.960;5.886;2023-07-29T01:53:29;10.23;;;6.07;;
36799;SDS011;22752;51.960;5.886;2023-07-29T01:55:55;6.72;;;5.30;;
36799;SDS011;22752;51.960;5.886;2023-07-29T01:58:21;5.57;;;4.90;;
36799;SDS011;22752;51.960;5.886;2023-07-29T02:00:47;6.68;;;5.10;;
36799;SDS011;22752;51.960;5.886;2023-07-29T02:03:13;6.25;;;4.75;;
36799;SDS011;22752;51.960;5.886;2023-07-29T02:05:39;6.65;;;5.47;;
36799;SDS011;22752;51.960;5.886;2023-07-29T02:08:05;5.90;;;4.93;;
36799;SDS011;22752;51.960;5.886;2023-07-29T02:10:30;7.45;;;5.32;;
36799;SDS011;22752;51.960;5.886;2023-07-29T02:12:56;7.15;;;5.63;;
36799;SDS011;22752;51.960;5.886;2023-07-29T02:15:22;8.52;;;5.35;;
36799;SDS011;22752;51.960;5.886;2023-07-29T02:17:49;6.80;;;5.63;;
36799;SDS011;22752;51.960;5.886;2023-07-29T02:20:16;5.65;;;4.50;;
36799;SDS011;22752;51.960;5.886;2023-07-29T02:22:42;6.32;;;4.68;;
36799;SDS011;22752;51.960;5.886;2023-07-29T02:25:08;8.07;;;5.28;;
36799;SDS011;22752;51.960;5.886;2023-07-29T02:27:35;5.50;;;4.97;;
36799;SDS011;22752;51.960;5.886;2023-07-29T02:30:00;7.72;;;5.90;;
36799;SDS011;22752;51.960;5.886;2023-07-29T02:32:27;6.35;;;5.68;;
36799;SDS011;22752;51.960;5.886;2023-07-29T02:34:53;9.50;;;6.60;;
36799;SDS011;22752;51.960;5.886;2023-07-29T02:37:18;12.15;;;8.55;;
36799;SDS011;22752;51.960;5.886;2023-07-29T02:39:45;9.60;;;7.68;;
36799;SDS011;22752;51.960;5.886;2023-07-29T02:42:10;11.88;;;8.73;;
36799;SDS011;22752;51.960;5.886;2023-07-29T02:44:36;10.32;;;8.43;;
36799;SDS011;22752;51.960;5.886;2023-07-29T02:47:01;9.02;;;7.57;;
36799;SDS011;22752;51.960;5.886;2023-07-29T02:49:27;11.75;;;9.35;;
36799;SDS011;22752;51.960;5.886;2023-07-29T02:51:53;10.93;;;7.70;;
36799;SDS011;22752;51.960;5.886;2023-07-29T02:54:19;10.82;;;9.00;;
36799;SDS011;22752;51.960;5.886;2023-07-29T02:56:44;11.43;;;9.15;;
36799;SDS011;22752;51.960;5.886;2023-07-29T02:59:10;8.93;;;7.97;;
36799;SDS011;22752;51.960;5.886;2023-07-29T03:01:36;9.35;;;7.75;;
36799;SDS011;22752;51.960;5.886;2023-07-29T03:04:01;8.48;;;7.30;;
36799;SDS011;22752;51.960;5.886;2023-07-29T03:06:27;7.78;;;6.32;;
36799;SDS011;22752;51.960;5.886;2023-07-29T03:08:53;8.80;;;7.45;;
36799;SDS011;22752;51.960;5.886;2023-07-29T03:11:18;8.10;;;6.93;;
36799;SDS011;22752;51.960;5.886;2023-07-29T03:13:44;8.35;;;6.28;;
36799;SDS011;22752;51.960;5.886;2023-07-29T03:16:11;8.10;;;6.82;;
36799;SDS011;22752;51.960;5.886;2023-07-29T03:18:38;8.38;;;6.63;;
36799;SDS011;22752;51.960;5.886;2023-07-29T03:21:03;10.07;;;6.63;;
36799;SDS011;22752;51.960;5.886;2023-07-29T03:23:30;9.68;;;6.85;;
36799;SDS011;22752;51.960;5.886;2023-07-29T03:25:57;7.10;;;5.72;;
36799;SDS011;22752;51.960;5.886;2023-07-29T03:28:26;8.50;;;6.13;;
36799;SDS011;22752;51.960;5.886;2023-07-29T03:30:56;8.77;;;5.78;;
36799;SDS011;22752;51.960;5.886;2023-07-29T03:33:22;9.23;;;5.50;;
36799;SDS011;22752;51.960;5.886;2023-07-29T03:35:49;7.35;;;5.20;;
36799;SDS011;22752;51.960;5.886;2023-07-29T03:38:14;7.03;;;5.03;;
36799;SDS011;22752;51.960;5.886;2023-07-29T03:40:40;6.55;;;4.40;;
36799;SDS011;22752;51.960;5.886;2023-07-29T03:43:07;5.03;;;4.10;;
36799;SDS011;22752;51.960;5.886;2023-07-29T03:45:33;5.32;;;4.40;;
36799;SDS011;22752;51.960;5.886;2023-07-29T03:47:59;4.88;;;3.90;;
36799;SDS011;22752;51.960;5.886;2023-07-29T03:50:25;6.10;;;4.57;;
36799;SDS011;22752;51.960;5.886;2023-07-29T03:52:51;5.15;;;4.47;;
36799;SDS011;22752;51.960;5.886;2023-07-29T03:55:17;5.18;;;3.58;;
36799;SDS011;22752;51.960;5.886;2023-07-29T03:57:43;7.28;;;4.53;;
36799;SDS011;22752;51.960;5.886;2023-07-29T04:00:09;4.80;;;4.18;;
36799;SDS011;22752;51.960;5.886;2023-07-29T04:02:35;6.63;;;3.95;;
36799;SDS011;22752;51.960;5.886;2023-07-29T04:05:04;6.28;;;4.28;;
36799;SDS011;22752;51.960;5.886;2023-07-29T04:07:31;4.05;;;3.50;;
36799;SDS011;22752;51.960;5.886;2023-07-29T04:09:56;5.97;;;3.63;;
36799;SDS011;22752;51.960;5.886;2023-07-29T04:12:23;5.53;;;3.30;;
36799;SDS011;22752;51.960;5.886;2023-07-29T04:14:49;7.65;;;4.57;;
36799;SDS011;22752;51.960;5.886;2023-07-29T04:17:15;5.93;;;3.50;;
36799;SDS011;22752;51.960;5.886;2023-07-29T04:19:40;5.45;;;3.15;;
36799;SDS011;22752;51.960;5.886;2023-07-29T04:22:06;4.82;;;3.35;;
36799;SDS011;22752;51.960;5.886;2023-07-29T04:24:32;3.72;;;3.03;;
36799;SDS011;22752;51.960;5.886;2023-07-29T04:26:57;4.57;;;3.10;;
36799;SDS011;22752;51.960;5.886;2023-07-29T04:29:23;4.70;;;3.20;;
36799;SDS011;22752;51.960;5.886;2023-07-29T04:31:49;4.28;;;3.42;;
36799;SDS011;22752;51.960;5.886;2023-07-29T04:34:16;6.00;;;3.45;;
36799;SDS011;22752;51.960;5.886;2023-07-29T04:36:43;4.45;;;3.00;;
36799;SDS011;22752;51.960;5.886;2023-07-29T04:39:08;2.90;;;2.60;;
36799;SDS011;22752;51.960;5.886;2023-07-29T04:41:34;4.38;;;2.72;;
36799;SDS011;22752;51.960;5.886;2023-07-29T04:44:00;3.10;;;2.15;;
36799;SDS011;22752;51.960;5.886;2023-07-29T04:46:25;4.95;;;2.60;;
36799;SDS011;22752;51.960;5.886;2023-07-29T04:48:51;3.03;;;2.30;;
36799;SDS011;22752;51.960;5.886;2023-07-29T04:51:17;3.38;;;2.45;;
36799;SDS011;22752;51.960;5.886;2023-07-29T04:53:42;3.53;;;2.40;;
36799;SDS011;22752;51.960;5.886;2023-07-29T04:56:08;4.43;;;2.40;;
36799;SDS011;22752;51.960;5.886;2023-07-29T04:58:33;3.92;;;2.65;;
36799;SDS011;22752;51.960;5.886;2023-07-29T05:01:00;5.80;;;3.00;;
36799;SDS011;22752;51.960;5.886;2023-07-29T05:03:27;3.65;;;2.78;;
36799;SDS011;22752;51.960;5.886;2023-07-29T05:05:52;3.40;;;2.42;;
36799;SDS011;22752;51.960;5.886;2023-07-29T05:08:20;4.43;;;2.60;;
36799;SDS011;22752;51.960;5.886;2023-07-29T05:10:49;4.97;;;2.65;;
36799;SDS011;22752;51.960;5.886;2023-07-29T05:13:16;3.40;;;2.40;;
36799;SDS011;22752;51.960;5.886;2023-07-29T05:15:42;5.28;;;2.53;;
36799;SDS011;22752;51.960;5.886;2023-07-29T05:18:08;2.65;;;2.30;;
36799;SDS011;22752;51.960;5.886;2023-07-29T05:20:33;2.72;;;2.13;;
36799;SDS011;22752;51.960;5.886;2023-07-29T05:22:59;3.25;;;2.50;;
36799;SDS011;22752;51.960;5.886;2023-07-29T05:25:25;5.18;;;2.35;;
36799;SDS011;22752;51.960;5.886;2023-07-29T05:27:51;6.05;;;2.67;;
36799;SDS011;22752;51.960;5.886;2023-07-29T05:30:17;4.55;;;2.53;;
36799;SDS011;22752;51.960;5.886;2023-07-29T05:32:43;3.97;;;2.40;;
36799;SDS011;22752;51.960;5.886;2023-07-29T05:35:08;3.13;;;2.83;;
36799;SDS011;22752;51.960;5.886;2023-07-29T05:37:37;3.60;;;2.42;;
36799;SDS011;22752;51.960;5.886;2023-07-29T05:40:05;5.50;;;2.92;;
36799;SDS011;22752;51.960;5.886;2023-07-29T05:42:31;4.22;;;3.25;;
36799;SDS011;22752;51.960;5.886;2023-07-29T05:44:58;5.00;;;2.90;;
36799;SDS011;22752;51.960;5.886;2023-07-29T05:47:23;5.68;;;3.03;;
36799;SDS011;22752;51.960;5.886;2023-07-29T05:49:49;4.68;;;3.20;;
36799;SDS011;22752;51.960;5.886;2023-07-29T05:52:15;3.53;;;2.90;;
36799;SDS011;22752;51.960;5.886;2023-07-29T05:54:40;5.28;;;3.33;;
36799;SDS011;22752;51.960;5.886;2023-07-29T05:57:08;4.22;;;3.55;;
36799;SDS011;22752;51.960;5.886;2023-07-29T05:59:34;5.15;;;3.72;;
36799;SDS011;22752;51.960;5.886;2023-07-29T06:02:00;4.47;;;4.05;;
36799;SDS011;22752;51.960;5.886;2023-07-29T06:04:26;5.03;;;3.28;;
36799;SDS011;22752;51.960;5.886;2023-07-29T06:06:52;5.05;;;3.47;;
36799;SDS011;22752;51.960;5.886;2023-07-29T06:09:17;8.23;;;3.60;;
36799;SDS011;22752;51.960;5.886;2023-07-29T06:11:43;8.93;;;4.00;;
36799;SDS011;22752;51.960;5.886;2023-07-29T06:14:08;5.45;;;3.70;;
36799;SDS011;22752;51.960;5.886;2023-07-29T06:16:34;3.83;;;3.08;;
36799;SDS011;22752;51.960;5.886;2023-07-29T06:19:00;6.05;;;3.75;;
36799;SDS011;22752;51.960;5.886;2023-07-29T06:21:25;6.30;;;4.00;;
36799;SDS011;22752;51.960;5.886;2023-07-29T06:23:51;4.05;;;3.42;;
36799;SDS011;22752;51.960;5.886;2023-07-29T06:26:17;7.90;;;3.45;;
36799;SDS011;22752;51.960;5.886;2023-07-29T06:28:42;5.45;;;4.15;;
36799;SDS011;22752;51.960;5.886;2023-07-29T06:31:08;6.80;;;4.00;;
36799;SDS011;22752;51.960;5.886;2023-07-29T06:33:34;4.85;;;3.15;;
36799;SDS011;22752;51.960;5.886;2023-07-29T06:35:59;5.57;;;3.40;;
36799;SDS011;22752;51.960;5.886;2023-07-29T06:38:25;6.72;;;3.90;;
36799;SDS011;22752;51.960;5.886;2023-07-29T06:40:50;6.07;;;3.45;;
36799;SDS011;22752;51.960;5.886;2023-07-29T06:43:17;4.30;;;2.97;;
36799;SDS011;22752;51.960;5.886;2023-07-29T06:45:43;4.38;;;3.97;;
36799;SDS011;22752;51.960;5.886;2023-07-29T06:48:08;3.97;;;3.13;;
36799;SDS011;22752;51.960;5.886;2023-07-29T06:50:34;6.25;;;3.33;;
36799;SDS011;22752;51.960;5.886;2023-07-29T06:53:00;5.43;;;3.13;;
36799;SDS011;22752;51.960;5.886;2023-07-29T06:55:25;7.03;;;3.53;;
36799;SDS011;22752;51.960;5.886;2023-07-29T06:57:51;3.70;;;3.10;;
36799;SDS011;22752;51.960;5.886;2023-07-29T07:00:17;4.20;;;3.30;;
36799;SDS011;22752;51.960;5.886;2023-07-29T07:02:42;7.22;;;3.83;;
36799;SDS011;22752;51.960;5.886;2023-07-29T07:05:08;8.40;;;3.60;;
36799;SDS011;22752;51.960;5.886;2023-07-29T07:07:34;5.63;;;3.88;;
36799;SDS011;22752;51.960;5.886;2023-07-29T07:10:00;6.30;;;3.47;;
36799;SDS011;22752;51.960;5.886;2023-07-29T07:12:25;5.15;;;3.90;;
36799;SDS011;22752;51.960;5.886;2023-07-29T07:14:51;3.60;;;3.25;;
36799;SDS011;22752;51.960;5.886;2023-07-29T07:17:17;4.57;;;3.00;;
36799;SDS011;22752;51.960;5.886;2023-07-29T07:19:43;4.97;;;3.17;;
36799;SDS011;22752;51.960;5.886;2023-07-29T07:22:08;4.25;;;3.42;;
36799;SDS011;22752;51.960;5.886;2023-07-29T07:24:34;4.40;;;3.30;;
36799;SDS011;22752;51.960;5.886;2023-07-29T07:27:00;6.03;;;3.63;;
36799;SDS011;22752;51.960;5.886;2023-07-29T07:29:26;5.18;;;3.70;;
36799;SDS011;22752;51.960;5.886;2023-07-29T07:31:52;4.68;;;4.10;;
36799;SDS011;22752;51.960;5.886;2023-07-29T07:34:22;4.43;;;3.30;;
36799;SDS011;22752;51.960;5.886;2023-07-29T07:36:48;5.15;;;3.67;;
36799;SDS011;22752;51.960;5.886;2023-07-29T07:39:14;4.78;;;3.65;;
36799;SDS011;22752;51.960;5.886;2023-07-29T07:41:40;4.53;;;3.58;;
36799;SDS011;22752;51.960;5.886;2023-07-29T07:44:06;2.72;;;2.50;;
36799;SDS011;22752;51.960;5.886;2023-07-29T07:46:32;4.30;;;3.50;;
36799;SDS011;22752;51.960;5.886;2023-07-29T07:48:58;3.78;;;3.30;;
36799;SDS011;22752;51.960;5.886;2023-07-29T07:51:23;5.07;;;3.88;;
36799;SDS011;22752;51.960;5.886;2023-07-29T07:53:49;5.57;;;3.75;;
36799;SDS011;22752;51.960;5.886;2023-07-29T07:56:14;7.40;;;3.70;;
36799;SDS011;22752;51.960;5.886;2023-07-29T07:58:40;6.78;;;3.97;;
36799;SDS011;22752;51.960;5.886;2023-07-29T08:01:06;3.40;;;2.42;;
36799;SDS011;22752;51.960;5.886;2023-07-29T08:03:34;4.22;;;2.78;;
36799;SDS011;22752;51.960;5.886;2023-07-29T08:06:00;6.00;;;4.03;;
36799;SDS011;22752;51.960;5.886;2023-07-29T08:08:26;5.00;;;3.38;;
36799;SDS011;22752;51.960;5.886;2023-07-29T08:10:52;5.13;;;2.92;;
36799;SDS011;22752;51.960;5.886;2023-07-29T08:13:20;8.10;;;3.47;;
36799;SDS011;22752;51.960;5.886;2023-07-29T08:15:47;4.70;;;3.08;;
36799;SDS011;22752;51.960;5.886;2023-07-29T08:18:13;5.72;;;2.97;;
36799;SDS011;22752;51.960;5.886;2023-07-29T08:20:38;2.58;;;2.22;;
36799;SDS011;22752;51.960;5.886;2023-07-29T08:23:04;4.13;;;2.70;;
36799;SDS011;22752;51.960;5.886;2023-07-29T08:25:30;5.05;;;2.88;;
36799;SDS011;22752;51.960;5.886;2023-07-29T08:27:56;7.72;;;2.78;;
36799;SDS011;22752;51.960;5.886;2023-07-29T08:30:22;4.90;;;2.65;;
36799;SDS011;22752;51.960;5.886;2023-07-29T08:32:47;2.50;;;2.30;;
36799;SDS011;22752;51.960;5.886;2023-07-29T08:35:13;2.72;;;2.10;;
36799;SDS011;22752;51.960;5.886;2023-07-29T08:37:38;3.72;;;2.67;;
36799;SDS011;22752;51.960;5.886;2023-07-29T08:40:04;4.30;;;2.13;;
36799;SDS011;22752;51.960;5.886;2023-07-29T08:42:31;3.47;;;1.90;;
36799;SDS011;22752;51.960;5.886;2023-07-29T08:44:59;3.40;;;2.22;;
36799;SDS011;22752;51.960;5.886;2023-07-29T08:47:33;3.25;;;1.90;;
36799;SDS011;22752;51.960;5.886;2023-07-29T08:49:59;3.10;;;1.83;;
36799;SDS011;22752;51.960;5.886;2023-07-29T08:52:26;3.00;;;2.00;;
36799;SDS011;22752;51.960;5.886;2023-07-29T08:54:54;3.72;;;1.83;;
36799;SDS011;22752;51.960;5.886;2023-07-29T08:57:20;6.30;;;2.28;;
36799;SDS011;22752;51.960;5.886;2023-07-29T08:59:46;2.55;;;1.60;;
36799;SDS011;22752;51.960;5.886;2023-07-29T09:02:12;2.63;;;2.00;;
36799;SDS011;22752;51.960;5.886;2023-07-29T09:04:38;2.90;;;2.00;;
36799;SDS011;22752;51.960;5.886;2023-07-29T09:07:04;3.10;;;1.90;;
36799;SDS011;22752;51.960;5.886;2023-07-29T09:09:31;2.38;;;2.00;;
36799;SDS011;22752;51.960;5.886;2023-07-29T09:11:57;3.80;;;1.77;;
36799;SDS011;22752;51.960;5.886;2023-07-29T09:14:23;2.75;;;1.95;;
36799;SDS011;22752;51.960;5.886;2023-07-29T09:16:49;2.03;;;1.60;;
36799;SDS011;22752;51.960;5.886;2023-07-29T09:19:15;2.17;;;1.60;;
36799;SDS011;22752;51.960;5.886;2023-07-29T09:21:41;2.50;;;1.70;;
36799;SDS011;22752;51.960;5.886;2023-07-29T09:24:07;2.65;;;1.58;;
36799;SDS011;22752;51.960;5.886;2023-07-29T09:26:33;2.95;;;1.60;;
36799;SDS011;22752;51.960;5.886;2023-07-29T09:29:00;3.05;;;2.05;;
36799;SDS011;22752;51.960;5.886;2023-07-29T09:31:26;3.55;;;1.40;;
36799;SDS011;22752;51.960;5.886;2023-07-29T09:34:00;2.25;;;1.70;;
36799;SDS011;22752;51.960;5.886;2023-07-29T09:36:29;3.78;;;1.50;;
36799;SDS011;22752;51.960;5.886;2023-07-29T09:38:56;2.50;;;1.58;;
36799;SDS011;22752;51.960;5.886;2023-07-29T09:41:28;2.47;;;1.38;;
36799;SDS011;22752;51.960;5.886;2023-07-29T09:43:58;2.22;;;1.60;;
36799;SDS011;22752;51.960;5.886;2023-07-29T09:46:32;3.45;;;1.50;;
36799;SDS011;22752;51.960;5.886;2023-07-29T09:48:59;2.50;;;1.50;;
36799;SDS011;22752;51.960;5.886;2023-07-29T09:51:26;1.98;;;1.38;;
36799;SDS011;22752;51.960;5.886;2023-07-29T09:53:52;6.18;;;2.03;;
36799;SDS011;22752;51.960;5.886;2023-07-29T09:56:17;1.52;;;1.30;;
36799;SDS011;22752;51.960;5.886;2023-07-29T09:58:48;3.05;;;1.80;;
36799;SDS011;22752;51.960;5.886;2023-07-29T10:01:14;3.30;;;1.52;;
36799;SDS011;22752;51.960;5.886;2023-07-29T10:03:40;2.75;;;1.80;;
36799;SDS011;22752;51.960;5.886;2023-07-29T10:06:07;3.80;;;1.73;;
36799;SDS011;22752;51.960;5.886;2023-07-29T10:08:33;5.97;;;1.75;;
36799;SDS011;22752;51.960;5.886;2023-07-29T10:11:05;2.63;;;1.67;;
36799;SDS011;22752;51.960;5.886;2023-07-29T10:13:32;2.72;;;1.80;;
36799;SDS011;22752;51.960;5.886;2023-07-29T10:15:58;2.92;;;1.40;;
36799;SDS011;22752;51.960;5.886;2023-07-29T10:18:27;1.30;;;1.20;;
36799;SDS011;22752;51.960;5.886;2023-07-29T10:20:53;1.52;;;1.42;;
36799;SDS011;22752;51.960;5.886;2023-07-29T10:23:21;4.32;;;1.50;;
36799;SDS011;22752;51.960;5.886;2023-07-29T10:25:50;1.45;;;1.30;;
36799;SDS011;22752;51.960;5.886;2023-07-29T10:28:28;2.72;;;1.40;;
36799;SDS011;22752;51.960;5.886;2023-07-29T10:30:56;2.22;;;1.63;;
36799;SDS011;22752;51.960;5.886;2023-07-29T10:33:22;2.55;;;1.73;;
36799;SDS011;22752;51.960;5.886;2023-07-29T10:35:48;9.85;;;2.38;;
36799;SDS011;22752;51.960;5.886;2023-07-29T10:38:14;4.07;;;2.13;;
36799;SDS011;22752;51.960;5.886;2023-07-29T10:41:13;2.47;;;1.90;;
36799;SDS011;22752;51.960;5.886;2023-07-29T10:43:33;2.95;;;1.63;;
36799;SDS011;22752;51.960;5.886;2023-07-29T10:46:20;2.67;;;1.35;;
36799;SDS011;22752;51.960;5.886;2023-07-29T10:51:22;4.13;;;2.00;;
36799;SDS011;22752;51.960;5.886;2023-07-29T10:53:57;2.47;;;2.10;;
36799;SDS011;22752;51.960;5.886;2023-07-29T10:56:29;2.65;;;1.60;;
36799;SDS011;22752;51.960;5.886;2023-07-29T10:58:59;2.28;;;1.42;;
36799;SDS011;22752;51.960;5.886;2023-07-29T11:01:52;3.33;;;2.15;;
36799;SDS011;22752;51.960;5.886;2023-07-29T11:04:28;4.13;;;1.92;;
36799;SDS011;22752;51.960;5.886;2023-07-29T11:17:53;1.80;;;1.55;;
36799;SDS011;22752;51.960;5.886;2023-07-29T11:20:28;1.38;;;1.27;;
36799;SDS011;22752;51.960;5.886;2023-07-29T11:25:23;2.72;;;1.10;;
36799;SDS011;22752;51.960;5.886;2023-07-29T11:27:54;2.47;;;1.50;;
36799;SDS011;22752;51.960;5.886;2023-07-29T11:30:22;2.55;;;1.50;;
36799;SDS011;22752;51.960;5.886;2023-07-29T11:32:58;3.42;;;1.52;;
36799;SDS011;22752;51.960;5.886;2023-07-29T11:35:24;1.65;;;1.40;;
36799;SDS011;22752;51.960;5.886;2023-07-29T11:37:51;1.60;;;1.30;;
36799;SDS011;22752;51.960;5.886;2023-07-29T11:40:18;3.28;;;1.35;;
36799;SDS011;22752;51.960;5.886;2023-07-29T11:42:45;1.50;;;1.40;;
36799;SDS011;22752;51.960;5.886;2023-07-29T11:45:12;1.80;;;1.58;;
36799;SDS011;22752;51.960;5.886;2023-07-29T11:47:39;1.08;;;1.08;;
36799;SDS011;22752;51.960;5.886;2023-07-29T11:50:06;2.05;;;1.50;;
36799;SDS011;22752;51.960;5.886;2023-07-29T11:52:36;2.63;;;1.35;;
36799;SDS011;22752;51.960;5.886;2023-07-29T11:55:03;2.30;;;1.40;;
36799;SDS011;22752;51.960;5.886;2023-07-29T11:57:30;3.85;;;1.50;;
36799;SDS011;22752;51.960;5.886;2023-07-29T11:59:58;3.67;;;2.13;;
36799;SDS011;22752;51.960;5.886;2023-07-29T12:02:24;4.25;;;1.90;;
36799;SDS011;22752;51.960;5.886;2023-07-29T12:04:51;2.17;;;1.60;;
36799;SDS011;22752;51.960;5.886;2023-07-29T12:07:18;3.25;;;1.50;;
36799;SDS011;22752;51.960;5.886;2023-07-29T12:09:44;2.22;;;1.50;;
36799;SDS011;22752;51.960;5.886;2023-07-29T12:12:11;1.70;;;1.30;;
36799;SDS011;22752;51.960;5.886;2023-07-29T12:14:37;1.75;;;1.10;;
36799;SDS011;22752;51.960;5.886;2023-07-29T12:17:03;1.70;;;1.30;;
36799;SDS011;22752;51.960;5.886;2023-07-29T12:19:31;3.38;;;1.63;;
36799;SDS011;22752;51.960;5.886;2023-07-29T12:21:58;4.00;;;1.30;;
36799;SDS011;22752;51.960;5.886;2023-07-29T12:24:24;2.42;;;1.55;;
36799;SDS011;22752;51.960;5.886;2023-07-29T12:26:49;2.85;;;1.75;;
36799;SDS011;22752;51.960;5.886;2023-07-29T12:29:18;3.13;;;2.25;;
36799;SDS011;22752;51.960;5.886;2023-07-29T12:31:47;4.72;;;2.60;;
36799;SDS011;22752;51.960;5.886;2023-07-29T12:34:17;3.72;;;2.42;;
36799;SDS011;22752;51.960;5.886;2023-07-29T12:36:45;2.33;;;2.05;;
36799;SDS011;22752;51.960;5.886;2023-07-29T12:39:16;2.53;;;1.80;;
36799;SDS011;22752;51.960;5.886;2023-07-29T12:41:46;3.65;;;1.63;;
36799;SDS011;22752;51.960;5.886;2023-07-29T12:44:16;1.77;;;1.48;;
36799;SDS011;22752;51.960;5.886;2023-07-29T12:46:42;2.20;;;1.30;;
36799;SDS011;22752;51.960;5.886;2023-07-29T12:49:08;3.00;;;1.42;;
36799;SDS011;22752;51.960;5.886;2023-07-29T12:51:33;1.40;;;1.20;;
36799;SDS011;22752;51.960;5.886;2023-07-29T12:53:59;1.65;;;1.33;;
36799;SDS011;22752;51.960;5.886;2023-07-29T12:56:25;1.73;;;1.63;;
36799;SDS011;22752;51.960;5.886;2023-07-29T12:58:51;2.63;;;1.80;;
36799;SDS011;22752;51.960;5.886;2023-07-29T13:01:17;2.03;;;1.50;;
36799;SDS011;22752;51.960;5.886;2023-07-29T13:03:43;1.92;;;1.70;;
36799;SDS011;22752;51.960;5.886;2023-07-29T13:06:09;2.45;;;1.45;;
36799;SDS011;22752;51.960;5.886;2023-07-29T13:08:35;2.22;;;1.63;;
36799;SDS011;22752;51.960;5.886;2023-07-29T13:11:01;3.78;;;2.08;;
36799;SDS011;22752;51.960;5.886;2023-07-29T13:13:27;1.80;;;1.52;;
36799;SDS011;22752;51.960;5.886;2023-07-29T13:15:52;2.20;;;1.75;;
36799;SDS011;22752;51.960;5.886;2023-07-29T13:18:18;3.10;;;2.30;;
36799;SDS011;22752;51.960;5.886;2023-07-29T13:20:43;2.08;;;1.45;;
36799;SDS011;22752;51.960;5.886;2023-07-29T13:23:09;1.73;;;1.55;;
36799;SDS011;22752;51.960;5.886;2023-07-29T13:25:35;1.83;;;1.70;;
36799;SDS011;22752;51.960;5.886;2023-07-29T13:28:00;3.15;;;2.08;;
36799;SDS011;22752;51.960;5.886;2023-07-29T13:30:26;1.95;;;1.75;;
36799;SDS011;22752;51.960;5.886;2023-07-29T13:32:52;2.35;;;1.90;;
36799;SDS011;22752;51.960;5.886;2023-07-29T13:35:18;2.00;;;1.83;;
36799;SDS011;22752;51.960;5.886;2023-07-29T13:37:43;2.97;;;1.77;;
36799;SDS011;22752;51.960;5.886;2023-07-29T13:40:09;2.33;;;1.73;;
36799;SDS011;22752;51.960;5.886;2023-07-29T13:42:35;2.20;;;1.80;;
36799;SDS011;22752;51.960;5.886;2023-07-29T13:45:01;2.25;;;2.05;;
36799;SDS011;22752;51.960;5.886;2023-07-29T13:47:27;3.97;;;2.20;;
36799;SDS011;22752;51.960;5.886;2023-07-29T13:49:53;2.03;;;1.88;;
36799;SDS011;22752;51.960;5.886;2023-07-29T13:52:18;5.57;;;2.45;;
36799;SDS011;22752;51.960;5.886;2023-07-29T13:54:44;3.85;;;2.47;;
36799;SDS011;22752;51.960;5.886;2023-07-29T13:57:09;3.13;;;2.20;;
36799;SDS011;22752;51.960;5.886;2023-07-29T13:59:35;2.33;;;1.85;;
36799;SDS011;22752;51.960;5.886;2023-07-29T14:02:04;3.13;;;1.90;;
36799;SDS011;22752;51.960;5.886;2023-07-29T14:04:30;2.50;;;2.20;;
36799;SDS011;22752;51.960;5.886;2023-07-29T14:06:57;1.70;;;1.60;;
36799;SDS011;22752;51.960;5.886;2023-07-29T14:09:23;2.80;;;1.95;;
36799;SDS011;22752;51.960;5.886;2023-07-29T14:11:49;3.45;;;1.90;;
36799;SDS011;22752;51.960;5.886;2023-07-29T14:14:14;2.53;;;1.88;;
36799;SDS011;22752;51.960;5.886;2023-07-29T14:16:40;2.00;;;1.90;;
36799;SDS011;22752;51.960;5.886;2023-07-29T14:19:06;3.38;;;2.22;;
36799;SDS011;22752;51.960;5.886;2023-07-29T14:21:31;2.97;;;1.98;;
36799;SDS011;22752;51.960;5.886;2023-07-29T14:23:57;2.92;;;1.73;;
36799;SDS011;22752;51.960;5.886;2023-07-29T14:26:23;1.70;;;1.60;;
36799;SDS011;22752;51.960;5.886;2023-07-29T14:28:48;2.95;;;1.90;;
36799;SDS011;22752;51.960;5.886;2023-07-29T14:31:15;1.55;;;1.42;;
36799;SDS011;22752;51.960;5.886;2023-07-29T14:33:42;3.03;;;1.92;;
36799;SDS011;22752;51.960;5.886;2023-07-29T14:36:08;2.15;;;1.77;;
36799;SDS011;22752;51.960;5.886;2023-07-29T14:38:34;1.77;;;1.67;;
36799;SDS011;22752;51.960;5.886;2023-07-29T14:41:00;1.85;;;1.60;;
36799;SDS011;22752;51.960;5.886;2023-07-29T14:43:26;1.67;;;1.58;;
36799;SDS011;22752;51.960;5.886;2023-07-29T14:45:51;3.15;;;1.70;;
36799;SDS011;22752;51.960;5.886;2023-07-29T14:48:17;2.15;;;1.90;;
36799;SDS011;22752;51.960;5.886;2023-07-29T14:50:43;3.72;;;2.55;;
36799;SDS011;22752;51.960;5.886;2023-07-29T14:53:09;3.67;;;3.28;;
36799;SDS011;22752;51.960;5.886;2023-07-29T14:55:36;2.92;;;2.63;;
36799;SDS011;22752;51.960;5.886;2023-07-29T14:58:02;2.78;;;2.58;;
36799;SDS011;22752;51.960;5.886;2023-07-29T15:00:28;3.28;;;2.45;;
36799;SDS011;22752;51.960;5.886;2023-07-29T15:02:53;4.70;;;2.83;;
36799;SDS011;22752;51.960;5.886;2023-07-29T15:05:19;4.57;;;2.63;;